createdAt,value
2023-01-02T00:00:57.544Z,100845.56
2023-01-02T00:03:24.547Z,100850.25
2023-01-02T00:05:51.360Z,100845.56
2023-01-02T00:08:18.125Z,100846.97
2023-01-02T00:10:44.942Z,100845.72
2023-01-02T00:13:11.717Z,100850.28
2023-01-02T00:15:38.466Z,100837.66
2023-01-02T00:18:05.219Z,100839.97
2023-01-02T00:20:31.999Z,100844.59
2023-01-02T00:22:58.837Z,100836.28
2023-01-02T00:25:25.589Z,100830.69
2023-01-02T00:27:52.345Z,100825.22
2023-01-02T00:30:19.114Z,100821.38
2023-01-02T00:32:45.907Z,100840.16
2023-01-02T00:35:12.676Z,100839.31
2023-01-02T00:37:39.455Z,100832.50
2023-01-02T00:40:06.257Z,100837.25
2023-01-02T00:42:33.054Z,100831.00
2023-01-02T00:44:59.803Z,100832.88
2023-01-02T00:47:26.571Z,100832.84
2023-01-02T00:49:53.369Z,100833.97
2023-01-02T00:52:20.141Z,100831.66
2023-01-02T00:54:46.913Z,100827.91
2023-01-02T00:57:13.715Z,100827.78
2023-01-02T00:59:40.526Z,100827.84
2023-01-02T01:02:07.389Z,100824.13
2023-01-02T01:04:34.289Z,100829.81
2023-01-02T01:07:01.064Z,100821.59
2023-01-02T01:09:27.823Z,100820.06
2023-01-02T01:11:54.594Z,100805.38
2023-01-02T01:14:21.370Z,100807.44
2023-01-02T01:16:48.114Z,100802.72
2023-01-02T01:19:14.896Z,100797.38
2023-01-02T01:21:41.641Z,100779.72
2023-01-02T01:24:08.369Z,100782.06
2023-01-02T01:26:35.140Z,100794.81
2023-01-02T01:29:01.927Z,100794.78
2023-01-02T01:31:28.817Z,100800.91
2023-01-02T01:33:55.641Z,100806.91
2023-01-02T01:36:22.428Z,100795.13
2023-01-02T01:38:49.421Z,100792.16
2023-01-02T01:41:16.202Z,100791.53
2023-01-02T01:43:42.980Z,100789.50
2023-01-02T01:46:09.895Z,100783.44
2023-01-02T01:48:36.742Z,100789.84
2023-01-02T01:51:03.527Z,100784.16
2023-01-02T01:53:30.286Z,100780.22
2023-01-02T01:55:57.058Z,100777.59
2023-01-02T01:58:23.859Z,100775.09
2023-01-02T02:00:50.686Z,100773.59
2023-01-02T02:03:17.523Z,100767.88
2023-01-02T02:05:44.293Z,100754.59
2023-01-02T02:08:11.014Z,100752.41
2023-01-02T02:10:37.837Z,100742.53
2023-01-02T02:13:04.576Z,100744.25
2023-01-02T02:15:31.337Z,100745.25
2023-01-02T02:17:58.118Z,100747.41
2023-01-02T02:20:24.847Z,100751.94
2023-01-02T02:22:51.652Z,100747.59
2023-01-02T02:25:18.427Z,100749.06
2023-01-02T02:27:45.146Z,100736.81
2023-01-02T02:30:11.944Z,100725.31
2023-01-02T02:32:38.704Z,100724.91
2023-01-02T02:35:05.468Z,100725.22
2023-01-02T02:37:32.198Z,100727.69
2023-01-02T02:39:58.949Z,100722.81
2023-01-02T02:42:25.674Z,100721.53
2023-01-02T02:44:53.868Z,100724.72
2023-01-02T02:47:20.663Z,100709.66
2023-01-02T02:49:47.392Z,100711.13
2023-01-02T02:52:14.115Z,100711.41
2023-01-02T02:54:40.849Z,100701.97
2023-01-02T02:57:07.585Z,100703.09
2023-01-02T02:59:34.315Z,100700.31
2023-01-02T03:02:01.221Z,100697.19
2023-01-02T03:04:28.064Z,100688.69
2023-01-02T03:06:55.306Z,100692.19
2023-01-02T03:09:22.045Z,100700.31
2023-01-02T03:11:49.063Z,100692.06
2023-01-02T03:14:15.818Z,100683.22
2023-01-02T03:16:42.602Z,100694.28
2023-01-02T03:19:09.410Z,100691.41
2023-01-02T03:21:36.608Z,100692.91
2023-01-02T03:24:03.409Z,100699.19
2023-01-02T03:26:30.136Z,100694.75
2023-01-02T03:28:56.883Z,100686.78
2023-01-02T03:31:23.621Z,100688.81
2023-01-02T03:33:50.357Z,100688.38
2023-01-02T03:36:17.091Z,100681.63
2023-01-02T03:38:43.836Z,100689.69
2023-01-02T03:41:10.569Z,100690.09
2023-01-02T03:43:37.302Z,100689.97
2023-01-02T03:46:04.067Z,100688.38
2023-01-02T03:48:30.830Z,100682.63
2023-01-02T03:50:57.644Z,100687.84
2023-01-02T03:53:24.394Z,100689.22
2023-01-02T03:55:51.128Z,100692.59
2023-01-02T03:58:17.935Z,100692.47
2023-01-02T04:00:44.719Z,100696.41
2023-01-02T04:03:11.522Z,100692.00
2023-01-02T04:05:38.309Z,100688.22
2023-01-02T04:08:05.059Z,100684.34
2023-01-02T04:10:31.812Z,100684.28
2023-01-02T04:12:58.540Z,100675.34
2023-01-02T04:15:25.398Z,100680.38
2023-01-02T04:17:52.199Z,100672.38
2023-01-02T04:20:19.002Z,100681.44
2023-01-02T04:22:45.778Z,100678.22
2023-01-02T04:25:13.506Z,100675.66
2023-01-02T04:27:40.251Z,100673.25
2023-01-02T04:30:07.058Z,100675.34
2023-01-02T04:32:33.882Z,100674.50
2023-01-02T04:35:00.937Z,100668.91
2023-01-02T04:37:27.995Z,100687.78
2023-01-02T04:39:54.722Z,100673.78
2023-01-02T04:42:21.448Z,100674.91
2023-01-02T04:44:48.218Z,100690.28
2023-01-02T04:47:21.513Z,100682.03
2023-01-02T04:49:48.631Z,100680.13
2023-01-02T04:52:15.429Z,100685.84
2023-01-02T04:54:42.306Z,100672.53
2023-01-02T04:57:09.055Z,100678.69
2023-01-02T04:59:35.819Z,100675.50
2023-01-02T05:02:02.623Z,100662.63
2023-01-02T05:04:29.472Z,100667.28
2023-01-02T05:06:56.216Z,100675.91
2023-01-02T05:09:22.968Z,100668.66
2023-01-02T05:11:49.705Z,100670.44
2023-01-02T05:14:16.499Z,100672.66
2023-01-02T05:16:43.278Z,100680.97
2023-01-02T05:19:10.008Z,100684.81
2023-01-02T05:21:55.224Z,100696.84
2023-01-02T05:24:23.060Z,100694.91
2023-01-02T05:26:49.800Z,100693.00
2023-01-02T05:29:16.563Z,100693.59
2023-01-02T05:31:43.463Z,100705.41
2023-01-02T05:34:10.228Z,100703.34
2023-01-02T05:36:36.981Z,100684.28
2023-01-02T05:39:04.452Z,100684.22
2023-01-02T05:41:31.617Z,100702.09
2023-01-02T05:43:58.390Z,100697.81
2023-01-02T05:46:25.168Z,100693.84
2023-01-02T05:48:51.917Z,100701.03
2023-01-02T05:51:18.686Z,100700.59
2023-01-02T05:53:45.443Z,100709.94
2023-01-02T05:56:12.199Z,100712.44
2023-01-02T05:58:38.990Z,100719.69
2023-01-02T06:01:05.720Z,100715.81
2023-01-02T06:03:32.505Z,100709.75
2023-01-02T06:05:59.287Z,100705.50
2023-01-02T06:08:26.011Z,100710.28
2023-01-02T06:10:52.797Z,100701.38
2023-01-02T06:13:19.546Z,100710.78
2023-01-02T06:15:46.262Z,100714.03
2023-01-02T06:18:12.991Z,100722.19
2023-01-02T06:20:39.736Z,100707.97
2023-01-02T06:23:06.484Z,100711.31
2023-01-02T06:25:33.224Z,100718.84
2023-01-02T06:27:59.983Z,100722.50
2023-01-02T06:30:26.737Z,100727.22
2023-01-02T06:32:53.481Z,100721.41
2023-01-02T06:35:20.244Z,100736.81
2023-01-02T06:37:47.018Z,100724.75
2023-01-02T06:40:13.801Z,100711.72
2023-01-02T06:42:40.596Z,100717.47
2023-01-02T06:45:07.416Z,100725.22
2023-01-02T06:47:34.142Z,100730.25
2023-01-02T06:50:00.895Z,100721.88
2023-01-02T06:52:27.817Z,100725.31
2023-01-02T06:54:54.594Z,100720.25
2023-01-02T06:57:21.333Z,100723.25
2023-01-02T06:59:48.058Z,100733.09
2023-01-02T07:02:14.908Z,100725.84
2023-01-02T07:04:41.766Z,100725.06
2023-01-02T07:07:11.634Z,100720.50
2023-01-02T07:09:38.399Z,100724.59
2023-01-02T07:12:05.144Z,100729.66
2023-01-02T07:14:31.878Z,100732.94
2023-01-02T07:16:58.682Z,100730.44
2023-01-02T07:19:25.507Z,100730.78
2023-01-02T07:21:52.238Z,100734.63
2023-01-02T07:24:18.966Z,100734.81
2023-01-02T07:26:45.764Z,100738.03
2023-01-02T07:29:12.501Z,100749.97
2023-01-02T07:31:39.373Z,100741.34
2023-01-02T07:34:06.153Z,100744.56
2023-01-02T07:36:32.877Z,100749.38
2023-01-02T07:38:59.704Z,100754.06
2023-01-02T07:41:26.499Z,100747.41
2023-01-02T07:43:53.227Z,100764.38
2023-01-02T07:46:20.007Z,100754.13
2023-01-02T07:48:46.790Z,100758.28
2023-01-02T07:51:14.655Z,100756.50
2023-01-02T07:53:41.861Z,100762.13
2023-01-02T07:56:08.654Z,100759.09
2023-01-02T07:58:35.384Z,100750.09
2023-01-02T08:01:05.655Z,100755.13
2023-01-02T08:03:32.756Z,100749.69
2023-01-02T08:05:59.491Z,100752.47
2023-01-02T08:08:26.227Z,100751.03
2023-01-02T08:10:53.061Z,100757.22
2023-01-02T08:13:19.789Z,100759.09
2023-01-02T08:15:46.582Z,100763.69
2023-01-02T08:18:13.333Z,100767.47
2023-01-02T08:20:40.088Z,100770.19
2023-01-02T08:23:06.819Z,100764.63
2023-01-02T08:25:33.577Z,100764.63
2023-01-02T08:28:00.343Z,100759.22
2023-01-02T08:30:27.077Z,100751.88
2023-01-02T08:32:53.825Z,100752.81
2023-01-02T08:35:36.902Z,100759.94
2023-01-02T08:38:04.451Z,100755.66
2023-01-02T08:40:31.193Z,100766.31
2023-01-02T08:42:57.924Z,100763.72
2023-01-02T08:45:24.732Z,100755.03
2023-01-02T08:47:51.648Z,100762.97
2023-01-02T08:50:18.371Z,100755.72
2023-01-02T08:52:45.122Z,100757.22
2023-01-02T08:55:13.216Z,100760.13
2023-01-02T08:57:40.099Z,100759.16
2023-01-02T09:00:06.848Z,100762.72
2023-01-02T09:02:33.769Z,100767.16
2023-01-02T09:05:00.606Z,100753.16
2023-01-02T09:07:27.397Z,100758.06
2023-01-02T09:09:54.113Z,100761.59
2023-01-02T09:12:20.848Z,100763.09
2023-01-02T09:14:47.643Z,100759.22
2023-01-02T09:17:14.387Z,100760.31
2023-01-02T09:19:42.562Z,100757.50
2023-01-02T09:22:09.322Z,100756.91
2023-01-02T09:24:36.072Z,100769.84
2023-01-02T09:27:02.833Z,100768.31
2023-01-02T09:29:29.736Z,100762.00
2023-01-02T09:31:56.498Z,100766.00
2023-01-02T09:34:23.296Z,100771.88
2023-01-02T09:36:50.043Z,100772.69
2023-01-02T09:39:16.799Z,100775.31
2023-01-02T09:41:43.601Z,100774.63
2023-01-02T09:44:11.193Z,100774.94
2023-01-02T09:46:38.033Z,100767.88
2023-01-02T09:49:04.825Z,100770.81
2023-01-02T09:51:31.580Z,100767.47
2023-01-02T09:53:58.317Z,100757.22
2023-01-02T09:56:29.006Z,100754.59
2023-01-02T09:58:58.734Z,100753.94
2023-01-02T10:01:25.501Z,100752.13
2023-01-02T10:03:52.270Z,100751.44
2023-01-02T10:06:19.097Z,100749.69
2023-01-02T10:08:45.923Z,100745.50
2023-01-02T10:11:12.656Z,100754.13
2023-01-02T10:16:26.553Z,100730.25
2023-01-02T10:18:53.462Z,100735.31
2023-01-02T10:21:20.197Z,100715.94
2023-01-02T10:23:46.927Z,100718.75
2023-01-02T10:26:13.755Z,100702.75
2023-01-02T10:28:40.487Z,100712.84
2023-01-02T10:31:07.852Z,100738.22
2023-01-02T10:33:34.747Z,100746.47
2023-01-02T10:36:01.617Z,100739.75
2023-01-02T10:38:28.437Z,100741.19
2023-01-02T10:40:55.319Z,100743.13
2023-01-02T10:43:22.072Z,100736.16
2023-01-02T10:45:48.932Z,100734.22
2023-01-02T10:48:15.706Z,100731.38
2023-01-02T10:50:42.529Z,100731.78
2023-01-02T10:53:09.328Z,100735.25
2023-01-02T10:55:36.081Z,100729.31
2023-01-02T10:58:02.817Z,100736.00
2023-01-02T11:00:30.376Z,100739.19
2023-01-02T11:02:57.382Z,100735.06
2023-01-02T11:05:24.190Z,100740.81
2023-01-02T11:07:50.914Z,100736.63
2023-01-02T11:10:17.677Z,100734.00
2023-01-02T11:12:44.420Z,100725.97
2023-01-02T11:15:11.321Z,100730.84
2023-01-02T11:17:38.067Z,100717.66
2023-01-02T11:20:04.807Z,100715.56
2023-01-02T11:22:31.566Z,100722.59
2023-01-02T11:25:00.613Z,100732.34
2023-01-02T11:27:27.946Z,100722.75
2023-01-02T11:29:54.684Z,100724.59
2023-01-02T11:32:21.426Z,100723.78
2023-01-02T11:34:48.414Z,100722.22
2023-01-02T11:37:15.229Z,100727.53
2023-01-02T11:39:41.965Z,100724.59
2023-01-02T11:42:27.501Z,100731.97
2023-01-02T11:44:54.351Z,100733.16
2023-01-02T11:47:21.093Z,100729.47
2023-01-02T11:49:48.558Z,100744.72
2023-01-02T11:52:15.329Z,100748.34
2023-01-02T11:54:42.059Z,100750.00
2023-01-02T11:57:11.549Z,100765.94
2023-01-02T11:59:42.076Z,100757.44
2023-01-02T12:02:08.852Z,100755.06
2023-01-02T12:04:35.767Z,100752.47
2023-01-02T12:07:02.525Z,100750.59
2023-01-02T12:09:29.274Z,100749.63
2023-01-02T12:11:55.998Z,100753.75
2023-01-02T12:14:22.802Z,100762.72
2023-01-02T12:16:49.747Z,100769.41
2023-01-02T12:19:16.538Z,100776.31
2023-01-02T12:21:43.484Z,100775.47
2023-01-02T12:24:10.229Z,100767.75
2023-01-02T12:26:36.967Z,100766.50
2023-01-02T12:29:03.806Z,100760.72
2023-01-02T12:31:30.579Z,100759.38
2023-01-02T12:33:57.384Z,100748.66
2023-01-02T12:36:24.192Z,100746.22
2023-01-02T12:38:51.354Z,100748.47
2023-01-02T12:41:18.096Z,100744.38
2023-01-02T12:43:44.926Z,100737.25
2023-01-02T12:46:11.772Z,100749.50
2023-01-02T12:48:38.533Z,100752.50
2023-01-02T12:51:05.323Z,100761.34
2023-01-02T12:53:32.056Z,100766.91
2023-01-02T12:55:58.785Z,100773.81
2023-01-02T12:58:25.545Z,100771.22
2023-01-02T13:00:52.396Z,100773.66
2023-01-02T13:03:22.387Z,100773.75
2023-01-02T13:05:49.511Z,100768.28
2023-01-02T13:08:16.268Z,100787.53
2023-01-02T13:10:43.023Z,100786.63
2023-01-02T13:13:09.800Z,100790.03
2023-01-02T13:15:36.541Z,100786.09
2023-01-02T13:18:03.283Z,100793.25
2023-01-02T13:20:30.845Z,100792.38
2023-01-02T13:22:57.587Z,100793.25
2023-01-02T13:25:24.322Z,100794.69
2023-01-02T13:27:51.130Z,100805.38
2023-01-02T13:30:20.117Z,100807.38
2023-01-02T13:32:47.102Z,100811.56
2023-01-02T13:35:13.871Z,100834.81
2023-01-02T13:37:40.627Z,100848.19
2023-01-02T13:40:07.354Z,100859.91
2023-01-02T13:42:52.582Z,100868.47
2023-01-02T13:45:19.371Z,100866.19
2023-01-02T13:47:48.083Z,100877.78
2023-01-02T13:50:14.904Z,100871.56
2023-01-02T13:52:41.649Z,100879.63
2023-01-02T13:55:08.377Z,100887.94
2023-01-02T13:57:35.131Z,100897.25
2023-01-02T14:00:01.901Z,100890.41
2023-01-02T14:02:33.796Z,100886.19
2023-01-02T14:05:00.706Z,100893.00
2023-01-02T14:07:29.337Z,100906.03
2023-01-02T14:09:56.058Z,100909.00
2023-01-02T14:12:22.813Z,100904.78
2023-01-02T14:14:49.541Z,100916.66
2023-01-02T14:17:16.313Z,100925.50
2023-01-02T14:19:43.775Z,100932.44
2023-01-02T14:22:10.516Z,100930.84
2023-01-02T14:24:37.265Z,100943.47
2023-01-02T14:27:04.127Z,100947.41
2023-01-02T14:29:30.893Z,100953.47
2023-01-02T14:31:57.623Z,100951.22
2023-01-02T14:34:24.409Z,100971.34
2023-01-02T14:36:51.226Z,100971.78
2023-01-02T14:39:18.293Z,100978.34
2023-01-02T14:42:04.021Z,100981.25
2023-01-02T14:44:30.751Z,100973.03
2023-01-02T14:46:57.479Z,100980.00
2023-01-02T14:49:27.187Z,100985.13
2023-01-02T14:51:54.045Z,100994.38
2023-01-02T14:54:20.862Z,100996.88
2023-01-02T14:56:47.605Z,100996.53
2023-01-02T14:59:16.281Z,101004.16
2023-01-02T15:01:44.857Z,101002.75
2023-01-02T15:04:11.771Z,100996.22
2023-01-02T15:06:41.503Z,100985.63
2023-01-02T15:09:08.247Z,100990.03
2023-01-02T15:11:53.920Z,100986.31
2023-01-02T15:14:23.997Z,100999.41
2023-01-02T15:16:51.025Z,100992.78
2023-01-02T15:19:17.766Z,101008.97
2023-01-02T15:21:44.498Z,101006.78
2023-01-02T15:24:11.220Z,101006.78
2023-01-02T15:26:39.942Z,101019.16
2023-01-02T15:29:06.839Z,101030.31
2023-01-02T15:31:33.680Z,101038.22
2023-01-02T15:34:00.708Z,101047.13
2023-01-02T15:36:32.671Z,101047.13
2023-01-02T15:38:59.395Z,101046.59
2023-01-02T15:41:26.143Z,101070.47
2023-01-02T15:44:11.440Z,101058.72
2023-01-02T15:46:38.368Z,101061.84
2023-01-02T15:49:08.217Z,101068.81
2023-01-02T15:51:39.669Z,101070.66
2023-01-02T15:54:08.032Z,101068.19
2023-01-02T15:56:34.826Z,101061.66
2023-01-02T15:59:01.542Z,101076.00
2023-01-02T16:01:28.369Z,101091.28
2023-01-02T16:04:02.741Z,101094.34
2023-01-02T16:06:30.886Z,101094.34
2023-01-02T16:08:57.630Z,101104.06
2023-01-02T16:11:24.426Z,101103.72
2023-01-02T16:14:09.946Z,101103.91
2023-01-02T16:16:36.717Z,101108.63
2023-01-02T16:19:03.539Z,101119.22
2023-01-02T16:21:30.334Z,101112.47
2023-01-02T16:23:57.064Z,101104.75
2023-01-02T16:26:24.239Z,101093.06
2023-01-02T16:28:51.146Z,101094.94
2023-01-02T16:31:17.976Z,101101.56
2023-01-02T16:33:45.699Z,101097.19
2023-01-02T16:36:12.478Z,101097.38
2023-01-02T16:38:39.199Z,101098.53
2023-01-02T16:41:11.761Z,101107.09
2023-01-02T16:43:43.454Z,101111.75
2023-01-02T16:46:10.495Z,101115.25
2023-01-02T16:48:37.265Z,101118.19
2023-01-02T16:51:04.025Z,101121.56
2023-01-02T16:53:30.797Z,101128.78
2023-01-02T16:55:57.566Z,101132.91
2023-01-02T16:58:25.333Z,101134.66
2023-01-02T17:00:52.126Z,101134.00
2023-01-02T17:03:18.980Z,101131.78
2023-01-02T17:05:45.848Z,101151.19
2023-01-02T17:08:12.595Z,101155.59
2023-01-02T17:10:40.187Z,101161.47
2023-01-02T17:13:06.994Z,101156.59
2023-01-02T17:15:33.785Z,101163.06
2023-01-02T17:18:00.520Z,101162.56
2023-01-02T17:20:27.278Z,101170.28
2023-01-02T17:22:54.046Z,101164.72
2023-01-02T17:25:20.818Z,101167.91
2023-01-02T17:27:47.653Z,101161.94
2023-01-02T17:30:14.398Z,101153.31
2023-01-02T17:32:41.143Z,101149.59
2023-01-02T17:35:07.923Z,101150.28
2023-01-02T17:37:34.714Z,101165.66
2023-01-02T17:40:01.470Z,101171.28
2023-01-02T17:42:28.235Z,101179.19
2023-01-02T17:44:54.976Z,101185.56
2023-01-02T17:47:57.754Z,101178.09
2023-01-02T17:50:08.641Z,101166.25
2023-01-02T17:52:35.794Z,101182.47
2023-01-02T17:55:02.587Z,101184.72
2023-01-02T17:57:29.331Z,101191.97
2023-01-02T17:59:56.176Z,101209.03
2023-01-02T18:02:23.068Z,101207.41
2023-01-02T18:04:54.783Z,101200.75
2023-01-02T18:07:22.134Z,101208.75
2023-01-02T18:10:08.580Z,101211.94
2023-01-02T18:12:36.422Z,101218.50
2023-01-02T18:15:03.335Z,101219.50
2023-01-02T18:17:30.594Z,101223.03
2023-01-02T18:19:57.562Z,101233.22
2023-01-02T18:22:24.721Z,101233.22
2023-01-02T18:24:52.140Z,101234.91
2023-01-02T18:27:18.888Z,101237.31
2023-01-02T18:29:45.623Z,101230.84
2023-01-02T18:32:12.402Z,101241.09
2023-01-02T18:34:48.571Z,101229.59
2023-01-02T18:37:15.912Z,101244.06
2023-01-02T18:39:42.664Z,101241.28
2023-01-02T18:42:09.407Z,101250.28
2023-01-02T18:44:36.170Z,101250.34
2023-01-02T18:47:05.268Z,101256.78
2023-01-02T18:49:32.158Z,101256.06
2023-01-02T18:51:58.885Z,101255.53
2023-01-02T18:54:25.637Z,101267.75
2023-01-02T18:56:52.463Z,101270.78
2023-01-02T18:59:19.189Z,101266.63
2023-01-02T19:01:46.059Z,101256.56
2023-01-02T19:04:22.408Z,101267.41
2023-01-02T19:06:53.807Z,101269.59
2023-01-02T19:09:20.683Z,101272.78
2023-01-02T19:12:06.249Z,101277.31
2023-01-02T19:14:32.999Z,101280.44
2023-01-02T19:16:59.795Z,101294.47
2023-01-02T19:19:26.596Z,101288.09
2023-01-02T19:21:53.341Z,101291.09
2023-01-02T19:24:20.125Z,101299.00
2023-01-02T19:26:46.941Z,101294.66
2023-01-02T19:29:13.679Z,101291.28
2023-01-02T19:31:40.413Z,101295.38
2023-01-02T19:34:07.200Z,101307.91
2023-01-02T19:36:36.426Z,101303.84
2023-01-02T19:39:03.166Z,101315.03
2023-01-02T19:41:48.606Z,101321.78
2023-01-02T19:44:15.383Z,101325.06
2023-01-02T19:46:42.203Z,101329.50
2023-01-02T19:49:09.273Z,101331.66
2023-01-02T19:51:36.066Z,101338.41
2023-01-02T19:54:04.556Z,101341.69
2023-01-02T19:56:31.592Z,101349.31
2023-01-02T19:58:58.331Z,101354.09
2023-01-02T20:01:25.167Z,101356.63
2023-01-02T20:03:52.042Z,101370.88
2023-01-02T20:06:18.795Z,101385.09
2023-01-02T20:08:46.885Z,101394.75
2023-01-02T20:11:33.612Z,101391.75
2023-01-02T20:14:00.344Z,101395.75
2023-01-02T20:16:27.172Z,101397.16
2023-01-02T20:18:53.983Z,101405.59
2023-01-02T20:21:21.957Z,101411.28
2023-01-02T20:23:54.413Z,101409.19
2023-01-02T20:26:22.982Z,101411.28
2023-01-02T20:28:49.723Z,101407.03
2023-01-02T20:31:16.483Z,101416.06
2023-01-02T20:33:43.267Z,101410.50
2023-01-02T20:36:13.713Z,101424.59
2023-01-02T20:38:40.833Z,101420.28
2023-01-02T20:41:07.638Z,101420.03
2023-01-02T20:43:34.376Z,101415.81
2023-01-02T20:46:01.210Z,101425.16
2023-01-02T20:48:28.007Z,101427.19
2023-01-02T20:50:54.760Z,101422.66
2023-01-02T20:53:21.518Z,101420.63
2023-01-02T20:55:48.321Z,101435.22
2023-01-02T20:58:15.248Z,101435.97
2023-01-02T21:00:42.105Z,101441.69
2023-01-02T21:03:09.066Z,101448.38
2023-01-02T21:05:36.649Z,101451.25
2023-01-02T21:08:03.401Z,101453.78
2023-01-02T21:10:30.162Z,101454.91
2023-01-02T21:13:10.515Z,101467.09
2023-01-02T21:15:46.722Z,101466.09
2023-01-02T21:18:13.616Z,101459.69
2023-01-02T21:20:46.045Z,101463.81
2023-01-02T21:23:13.308Z,101462.34
2023-01-02T21:25:40.061Z,101463.94
2023-01-02T21:28:06.799Z,101460.69
2023-01-02T21:30:33.551Z,101470.19
2023-01-02T21:33:00.300Z,101470.31
2023-01-02T21:35:27.034Z,101467.09
2023-01-02T21:37:53.800Z,101468.72
2023-01-02T21:40:20.713Z,101469.94
2023-01-02T21:42:47.736Z,101486.94
2023-01-02T21:45:14.542Z,101491.31
2023-01-02T21:47:41.337Z,101497.41
2023-01-02T21:50:08.091Z,101496.25
2023-01-02T21:52:34.875Z,101498.88
2023-01-02T21:55:01.708Z,101509.97
2023-01-02T21:58:02.593Z,101509.72
2023-01-02T22:00:15.203Z,101509.59
2023-01-02T22:02:42.038Z,101514.19
2023-01-02T22:05:08.839Z,101518.91
2023-01-02T22:07:39.334Z,101528.53
2023-01-02T22:10:09.014Z,101529.38
2023-01-02T22:12:35.749Z,101539.97
2023-01-02T22:15:02.497Z,101537.94
2023-01-02T22:17:29.255Z,101560.00
2023-01-02T22:19:56.014Z,101548.31
2023-01-02T22:22:22.772Z,101555.66
2023-01-02T22:24:49.509Z,101554.22
2023-01-02T22:27:16.252Z,101562.00
2023-01-02T22:32:32.896Z,101576.03
2023-01-02T22:34:59.651Z,101579.41
2023-01-02T22:37:26.391Z,101584.84
2023-01-02T22:39:53.176Z,101573.25
2023-01-02T22:43:06.664Z,101574.59
2023-01-02T22:45:27.338Z,101585.44
2023-01-02T22:47:54.095Z,101584.47
2023-01-02T22:50:20.824Z,101593.03
2023-01-02T22:52:47.585Z,101592.53
2023-01-02T22:55:14.755Z,101598.94
2023-01-02T22:57:44.645Z,101605.09
2023-01-02T23:00:14.171Z,101599.63
2023-01-02T23:02:40.906Z,101614.13
2023-01-02T23:05:07.637Z,101616.31
2023-01-02T23:07:34.378Z,101621.81
2023-01-02T23:10:01.117Z,101625.31
2023-01-02T23:12:27.851Z,101625.22
2023-01-02T23:14:54.591Z,101626.63
2023-01-02T23:17:39.962Z,101623.91
2023-01-02T23:20:06.695Z,101634.50
2023-01-02T23:22:33.419Z,101630.06
2023-01-02T23:25:00.649Z,101636.91
2023-01-02T23:27:27.555Z,101635.91
2023-01-02T23:29:54.318Z,101636.28
2023-01-02T23:32:21.066Z,101637.94
2023-01-02T23:34:47.838Z,101642.56
2023-01-02T23:37:14.567Z,101647.38
2023-01-02T23:39:41.357Z,101639.06
2023-01-02T23:42:08.125Z,101639.91
2023-01-02T23:44:35.028Z,101643.59
2023-01-02T23:47:08.621Z,101648.63
2023-01-02T23:49:36.849Z,101649.03
2023-01-02T23:52:04.757Z,101658.91
2023-01-02T23:54:31.558Z,101648.66
2023-01-02T23:56:58.285Z,101658.78
2023-01-02T23:59:25.045Z,101662.97
